createdAt,value
2022-12-11T00:01:10.760Z,69.69
2022-12-11T00:03:39.362Z,69.49
2022-12-11T00:06:09.203Z,69.41
2022-12-11T00:08:39.090Z,68.92
2022-12-11T00:11:09.661Z,69.07
2022-12-11T00:13:37.711Z,69.93
2022-12-11T00:16:06.179Z,70.16
2022-12-11T00:18:34.304Z,70.14
2022-12-11T00:21:02.751Z,70.29
2022-12-11T00:23:31.560Z,70.03
2022-12-11T00:26:01.081Z,70.28
2022-12-11T00:28:29.070Z,70.08
2022-12-11T00:30:57.069Z,69.33
2022-12-11T00:33:25.069Z,69.33
2022-12-11T00:35:53.028Z,69.14
2022-12-11T00:38:22.547Z,68.32
2022-12-11T00:40:50.582Z,68.34
2022-12-11T00:43:20.097Z,68.51
2022-12-11T00:45:49.244Z,68.03
2022-12-11T00:48:17.306Z,67.82
2022-12-11T00:50:45.363Z,68.71
2022-12-11T00:53:13.554Z,68.72
2022-12-11T00:55:43.459Z,68.96
2022-12-11T00:58:11.926Z,68.87
2022-12-11T01:00:43.607Z,69.29
2022-12-11T01:03:14.284Z,69.12
2022-12-11T01:05:42.822Z,69.03
2022-12-11T01:08:11.569Z,69.13
2022-12-11T01:10:39.739Z,69.33
2022-12-11T01:13:08.709Z,69.37
2022-12-11T01:15:42.850Z,70.46
2022-12-11T01:18:12.333Z,70.80
2022-12-11T01:20:42.701Z,70.90
2022-12-11T01:23:14.215Z,70.74
2022-12-11T01:25:43.121Z,70.25
2022-12-11T01:28:11.613Z,70.50
2022-12-11T01:30:41.652Z,70.51
2022-12-11T01:33:11.560Z,70.52
2022-12-11T01:35:41.100Z,69.97
2022-12-11T01:38:09.129Z,69.52
2022-12-11T01:40:37.220Z,69.57
2022-12-11T01:43:05.205Z,69.36
2022-12-11T01:45:40.666Z,69.92
2022-12-11T01:48:13.035Z,69.35
2022-12-11T01:50:45.637Z,69.84
2022-12-11T01:53:19.078Z,71.07
2022-12-11T01:55:49.048Z,70.96
2022-12-11T01:58:19.691Z,72.05
2022-12-11T02:00:48.021Z,72.10
2022-12-11T02:03:17.779Z,72.08
2022-12-11T02:05:45.850Z,71.90
2022-12-11T02:08:14.285Z,72.30
2022-12-11T02:10:50.722Z,71.10
2022-12-11T02:13:28.147Z,70.66
2022-12-11T02:16:02.488Z,70.42
2022-12-11T02:18:37.707Z,69.95
2022-12-11T02:21:14.545Z,69.33
2022-12-11T02:24:05.248Z,69.22
2022-12-11T02:26:53.472Z,68.63
2022-12-11T02:29:28.609Z,69.00
2022-12-11T02:32:02.854Z,68.43
2022-12-11T02:34:37.425Z,68.83
2022-12-11T02:37:10.566Z,69.37
2022-12-11T02:39:41.767Z,69.33
2022-12-11T02:42:12.444Z,69.79
2022-12-11T02:44:43.002Z,69.97
2022-12-11T02:47:16.489Z,69.75
2022-12-11T02:49:47.831Z,70.93
2022-12-11T02:52:20.078Z,72.33
2022-12-11T02:54:49.253Z,73.27
2022-12-11T02:57:23.237Z,73.35
2022-12-11T02:59:52.888Z,73.32
2022-12-11T03:02:21.024Z,72.84
2022-12-11T03:04:49.633Z,72.60
2022-12-11T03:07:23.570Z,72.71
2022-12-11T03:09:52.218Z,72.26
2022-12-11T03:12:24.329Z,72.20
2022-12-11T03:14:53.755Z,72.26
2022-12-11T03:17:24.075Z,73.84
2022-12-11T03:20:01.510Z,73.46
2022-12-11T03:22:38.938Z,72.20
2022-12-11T03:25:11.664Z,71.65
2022-12-11T03:27:44.920Z,71.29
2022-12-11T03:30:18.074Z,70.73
2022-12-11T03:32:53.760Z,70.49
2022-12-11T03:35:26.865Z,70.20
2022-12-11T03:37:57.960Z,70.01
2022-12-11T03:40:27.265Z,70.44
2022-12-11T03:42:58.677Z,71.08
2022-12-11T03:45:30.661Z,70.58
2022-12-11T03:48:02.928Z,70.78
2022-12-11T03:50:33.768Z,70.34
2022-12-11T03:53:02.878Z,70.53
2022-12-11T03:55:33.696Z,70.13
2022-12-11T03:58:01.854Z,69.98
2022-12-11T04:00:31.446Z,69.84
2022-12-11T04:03:14.937Z,69.61
2022-12-11T04:05:44.712Z,69.21
2022-12-11T04:08:13.086Z,68.68
2022-12-11T04:10:41.737Z,69.37
2022-12-11T04:13:10.283Z,68.78
2022-12-11T04:15:39.608Z,68.88
2022-12-11T04:18:22.579Z,68.69
2022-12-11T04:21:13.654Z,68.55
2022-12-11T04:23:59.843Z,68.38
2022-12-11T04:26:28.225Z,68.22
2022-12-11T04:28:56.245Z,68.35
2022-12-11T04:31:25.675Z,68.46
2022-12-11T04:33:53.861Z,68.63
2022-12-11T04:36:21.849Z,68.52
2022-12-11T04:38:49.910Z,69.32
2022-12-11T04:41:18.615Z,68.96
2022-12-11T04:43:46.847Z,68.55
2022-12-11T04:46:17.023Z,68.30
2022-12-11T04:48:51.179Z,68.27
2022-12-11T04:51:22.016Z,68.55
2022-12-11T04:53:50.152Z,68.81
2022-12-11T04:56:18.184Z,68.70
2022-12-11T04:58:46.731Z,68.39
2022-12-11T05:01:17.094Z,68.16
2022-12-11T05:03:46.863Z,67.35
2022-12-11T05:06:15.454Z,67.57
2022-12-11T05:08:45.448Z,67.16
2022-12-11T05:11:15.254Z,67.04
2022-12-11T05:13:43.708Z,67.21
2022-12-11T05:16:13.798Z,67.56
2022-12-11T05:18:41.968Z,67.47
2022-12-11T05:21:13.110Z,67.76
2022-12-11T05:23:42.201Z,67.48
2022-12-11T05:26:13.783Z,68.13
2022-12-11T05:28:42.318Z,67.78
2022-12-11T05:31:15.124Z,68.00
2022-12-11T05:33:43.486Z,67.94
2022-12-11T05:36:16.966Z,67.72
2022-12-11T05:38:45.471Z,67.77
2022-12-11T05:41:15.827Z,67.36
2022-12-11T05:43:44.008Z,67.90
2022-12-11T05:46:14.296Z,68.18
2022-12-11T05:48:43.051Z,67.95
2022-12-11T05:51:13.219Z,67.33
2022-12-11T05:53:42.582Z,66.91
2022-12-11T05:56:13.258Z,67.08
2022-12-11T05:58:42.230Z,67.35
2022-12-11T06:01:11.949Z,67.11
2022-12-11T06:03:40.446Z,67.04
2022-12-11T06:06:09.708Z,66.98
2022-12-11T06:08:39.456Z,66.87
2022-12-11T06:11:08.122Z,66.53
2022-12-11T06:13:36.930Z,66.67
2022-12-11T06:16:06.881Z,66.95
2022-12-11T06:18:37.903Z,67.12
2022-12-11T06:21:13.916Z,66.95
2022-12-11T06:23:43.891Z,66.66
2022-12-11T06:26:12.648Z,66.35
2022-12-11T06:28:41.410Z,68.28
2022-12-11T06:31:09.634Z,68.23
2022-12-11T06:33:38.279Z,68.78
2022-12-11T06:36:07.888Z,68.61
2022-12-11T06:38:36.717Z,68.18
2022-12-11T06:41:08.043Z,67.71
2022-12-11T06:43:37.527Z,67.57
2022-12-11T06:46:06.624Z,66.77
2022-12-11T06:48:34.985Z,66.18
2022-12-11T06:51:07.715Z,65.56
2022-12-11T06:53:36.252Z,65.82
2022-12-11T06:56:08.854Z,66.23
2022-12-11T06:58:38.635Z,66.17
2022-12-11T07:01:14.847Z,65.71
2022-12-11T07:03:43.113Z,66.26
2022-12-11T07:06:11.680Z,65.95
2022-12-11T07:08:40.091Z,65.78
2022-12-11T07:11:12.546Z,65.77
2022-12-11T07:13:42.159Z,65.71
2022-12-11T07:16:11.716Z,65.74
2022-12-11T07:18:40.547Z,65.89
2022-12-11T07:21:09.055Z,65.54
2022-12-11T07:23:37.593Z,65.35
2022-12-11T07:26:06.480Z,65.22
2022-12-11T07:28:36.535Z,65.54
2022-12-11T07:31:07.644Z,65.80
2022-12-11T07:33:35.682Z,65.58
2022-12-11T07:36:04.536Z,65.58
2022-12-11T07:38:33.011Z,65.66
2022-12-11T07:41:02.155Z,65.41
2022-12-11T07:43:30.594Z,65.20
2022-12-11T07:46:03.772Z,64.85
2022-12-11T07:48:31.799Z,64.55
2022-12-11T07:51:09.627Z,64.06
2022-12-11T07:53:37.766Z,64.14
2022-12-11T07:56:06.384Z,63.60
2022-12-11T07:58:34.534Z,63.32
2022-12-11T08:01:04.085Z,63.56
2022-12-11T08:03:32.370Z,63.80
2022-12-11T08:06:00.317Z,63.16
2022-12-11T08:08:28.387Z,63.58
2022-12-11T08:10:56.484Z,63.30
2022-12-11T08:13:24.853Z,63.64
2022-12-11T08:15:54.778Z,63.22
2022-12-11T08:18:25.196Z,62.81
2022-12-11T08:20:53.427Z,62.81
2022-12-11T08:23:21.449Z,62.90
2022-12-11T08:25:49.447Z,63.07
2022-12-11T08:28:17.906Z,63.41
2022-12-11T08:30:46.270Z,63.93
2022-12-11T08:33:14.707Z,63.30
2022-12-11T08:35:46.778Z,63.19
2022-12-11T08:38:15.498Z,63.19
2022-12-11T08:40:43.921Z,63.15
2022-12-11T08:43:12.007Z,62.58
2022-12-11T08:45:40.598Z,62.11
2022-12-11T08:48:08.646Z,61.63
2022-12-11T08:50:38.305Z,60.71
2022-12-11T08:53:07.985Z,60.82
2022-12-11T08:55:36.042Z,59.80
2022-12-11T08:58:04.081Z,59.86
2022-12-11T09:00:32.508Z,62.10
2022-12-11T09:03:01.037Z,61.33
2022-12-11T09:05:29.139Z,61.44
2022-12-11T09:07:57.249Z,61.00
2022-12-11T09:10:27.269Z,59.55
2022-12-11T09:12:55.240Z,59.89
2022-12-11T09:15:24.209Z,60.06
2022-12-11T09:17:52.808Z,59.05
2022-12-11T09:20:21.612Z,57.66
2022-12-11T09:22:49.850Z,56.92
2022-12-11T09:25:17.942Z,56.69
2022-12-11T09:27:47.495Z,57.75
2022-12-11T09:30:16.630Z,57.61
2022-12-11T09:32:44.679Z,57.02
2022-12-11T09:35:12.878Z,56.54
2022-12-11T09:37:41.554Z,55.15
2022-12-11T09:40:11.829Z,54.92
2022-12-11T09:42:52.182Z,54.76
2022-12-11T09:45:21.089Z,54.38
2022-12-11T09:47:53.401Z,54.40
2022-12-11T09:50:25.242Z,54.29
2022-12-11T09:53:06.700Z,53.99
2022-12-11T09:55:42.988Z,53.85
2022-12-11T09:58:23.522Z,54.78
2022-12-11T10:00:59.074Z,55.33
2022-12-11T10:03:52.706Z,55.27
2022-12-11T10:06:26.974Z,55.13
2022-12-11T10:09:04.716Z,54.84
2022-12-11T10:11:54.452Z,54.21
2022-12-11T10:14:36.439Z,54.35
2022-12-11T10:17:12.348Z,54.15
2022-12-11T10:19:42.976Z,53.92
2022-12-11T10:22:19.432Z,53.26
2022-12-11T10:25:12.564Z,52.89
2022-12-11T10:27:41.722Z,52.66
2022-12-11T10:30:18.162Z,52.48
2022-12-11T10:32:53.023Z,53.08
2022-12-11T10:35:34.721Z,52.58
2022-12-11T10:38:17.160Z,53.23
2022-12-11T10:40:51.938Z,52.80
2022-12-11T10:43:20.512Z,53.40
2022-12-11T10:45:55.034Z,52.80
2022-12-11T10:48:23.883Z,54.40
2022-12-11T10:51:03.679Z,54.21
2022-12-11T10:53:32.775Z,53.16
2022-12-11T10:56:01.531Z,53.03
2022-12-11T10:58:34.352Z,52.73
2022-12-11T11:01:10.662Z,52.12
2022-12-11T11:03:56.414Z,52.46
2022-12-11T11:06:26.045Z,52.99
2022-12-11T11:08:56.595Z,52.00
2022-12-11T11:11:28.224Z,52.53
2022-12-11T11:14:14.981Z,51.23
2022-12-11T11:16:46.711Z,53.21
2022-12-11T11:19:22.122Z,52.68
2022-12-11T11:21:55.062Z,52.52
2022-12-11T11:24:28.433Z,51.55
2022-12-11T11:27:12.908Z,50.23
2022-12-11T11:29:42.804Z,50.78
2022-12-11T11:32:21.551Z,50.82
2022-12-11T11:34:49.745Z,50.07
2022-12-11T11:37:27.105Z,49.96
2022-12-11T11:40:04.417Z,49.37
2022-12-11T11:42:42.482Z,49.89
2022-12-11T11:45:16.879Z,50.19
2022-12-11T11:47:57.904Z,49.49
2022-12-11T11:50:32.979Z,50.69
2022-12-11T11:53:06.038Z,50.88
2022-12-11T11:55:43.851Z,51.16
2022-12-11T11:58:16.996Z,50.84
2022-12-11T12:00:45.069Z,50.75
2022-12-11T12:03:18.077Z,50.22
2022-12-11T12:05:54.827Z,50.35
2022-12-11T12:08:34.592Z,50.90
2022-12-11T12:11:08.692Z,51.82
2022-12-11T12:13:49.653Z,52.02
2022-12-11T12:16:52.372Z,52.16
2022-12-11T12:19:30.440Z,53.50
2022-12-11T12:22:02.105Z,52.06
2022-12-11T12:24:38.727Z,51.86
2022-12-11T12:27:50.473Z,51.62
2022-12-11T12:30:13.258Z,52.01
2022-12-11T12:32:54.860Z,51.12
2022-12-11T12:35:34.206Z,51.63
2022-12-11T12:38:12.418Z,50.76
2022-12-11T12:40:51.761Z,51.90
2022-12-11T12:43:51.641Z,51.67
2022-12-11T12:46:34.484Z,50.64
2022-12-11T12:49:03.627Z,51.15
2022-12-11T12:51:33.595Z,52.34
2022-12-11T12:54:10.664Z,52.04
2022-12-11T12:56:45.277Z,51.14
2022-12-11T12:59:24.387Z,51.59
2022-12-11T13:01:57.144Z,51.39
2022-12-11T13:04:58.459Z,50.48
2022-12-11T13:07:30.921Z,50.00
2022-12-11T13:10:06.220Z,50.78
2022-12-11T13:12:45.980Z,50.38
2022-12-11T13:15:33.422Z,49.17
2022-12-11T13:18:03.606Z,50.65
2022-12-11T13:20:33.747Z,50.36
2022-12-11T13:23:20.769Z,49.73
2022-12-11T13:25:53.143Z,49.67
2022-12-11T13:28:27.536Z,48.77
2022-12-11T13:31:01.805Z,49.53
2022-12-11T13:33:31.470Z,49.59
2022-12-11T13:36:24.923Z,50.01
2022-12-11T13:38:58.067Z,50.24
2022-12-11T13:41:26.334Z,50.56
2022-12-11T13:43:55.203Z,49.74
2022-12-11T13:46:28.263Z,50.01
2022-12-11T13:49:01.006Z,50.43
2022-12-11T13:51:32.304Z,49.97
2022-12-11T13:54:07.180Z,50.62
2022-12-11T13:56:35.529Z,50.93
2022-12-11T13:59:03.647Z,50.65
2022-12-11T14:01:35.418Z,50.36
2022-12-11T14:04:09.303Z,50.31
2022-12-11T14:06:40.112Z,51.26
2022-12-11T14:09:10.506Z,50.95
2022-12-11T14:11:42.087Z,50.30
2022-12-11T14:14:20.624Z,50.35
2022-12-11T14:16:50.316Z,49.71
2022-12-11T14:19:20.935Z,50.82
2022-12-11T14:21:59.969Z,50.65
2022-12-11T14:24:31.634Z,50.44
2022-12-11T14:27:00.174Z,50.34
2022-12-11T14:29:30.833Z,51.15
2022-12-11T14:32:02.829Z,50.82
2022-12-11T14:34:36.507Z,50.66
2022-12-11T14:37:08.310Z,51.29
2022-12-11T14:39:46.038Z,51.05
2022-12-11T14:42:19.270Z,51.47
2022-12-11T14:44:51.028Z,51.04
2022-12-11T14:47:22.552Z,51.08
2022-12-11T14:49:58.931Z,51.21
2022-12-11T14:52:32.838Z,51.57
2022-12-11T14:55:10.637Z,51.27
2022-12-11T14:57:42.965Z,51.38
2022-12-11T15:00:23.345Z,52.11
2022-12-11T15:02:59.589Z,52.00
2022-12-11T15:05:28.088Z,53.21
2022-12-11T15:07:59.513Z,51.54
2022-12-11T15:10:36.669Z,52.40
2022-12-11T15:13:07.056Z,52.52
2022-12-11T15:15:47.558Z,52.17
2022-12-11T15:18:22.220Z,53.05
2022-12-11T15:20:53.419Z,53.04
2022-12-11T15:23:24.467Z,53.15
2022-12-11T15:25:56.011Z,52.77
2022-12-11T15:28:28.427Z,53.86
2022-12-11T15:30:59.498Z,53.80
2022-12-11T15:33:33.869Z,54.17
2022-12-11T15:36:26.745Z,53.79
2022-12-11T15:38:54.809Z,54.99
2022-12-11T15:41:25.133Z,53.75
2022-12-11T15:43:58.525Z,54.71
2022-12-11T15:46:27.656Z,55.47
2022-12-11T15:48:57.866Z,56.39
2022-12-11T15:51:27.525Z,57.18
2022-12-11T15:53:55.741Z,56.75
2022-12-11T15:56:25.174Z,56.96
2022-12-11T15:58:53.201Z,57.95
2022-12-11T16:01:21.415Z,58.30
2022-12-11T16:03:50.406Z,59.23
2022-12-11T16:06:18.517Z,58.87
2022-12-11T16:08:46.667Z,59.04
2022-12-11T16:11:15.682Z,58.89
2022-12-11T16:13:45.182Z,58.75
2022-12-11T16:16:13.301Z,59.52
2022-12-11T16:18:41.308Z,59.38
2022-12-11T16:21:09.274Z,59.92
2022-12-11T16:23:37.553Z,59.86
2022-12-11T16:26:09.766Z,59.68
2022-12-11T16:28:37.888Z,60.22
2022-12-11T16:31:11.648Z,59.60
2022-12-11T16:33:39.830Z,59.65
2022-12-11T16:36:14.826Z,59.77
2022-12-11T16:38:51.387Z,60.37
2022-12-11T16:41:21.704Z,60.75
2022-12-11T16:43:49.855Z,60.89
2022-12-11T16:46:20.471Z,60.03
2022-12-11T16:48:48.543Z,60.75
2022-12-11T16:51:16.596Z,59.71
2022-12-11T16:53:44.589Z,59.80
2022-12-11T16:56:12.878Z,59.45
2022-12-11T16:58:41.666Z,59.56
2022-12-11T17:01:12.254Z,60.28
2022-12-11T17:03:43.199Z,59.41
2022-12-11T17:06:13.407Z,59.94
2022-12-11T17:08:42.712Z,59.68
2022-12-11T17:11:14.480Z,59.45
2022-12-11T17:13:42.770Z,59.86
2022-12-11T17:16:13.786Z,60.86
2022-12-11T17:18:44.489Z,60.77
2022-12-11T17:21:15.685Z,60.74
2022-12-11T17:23:43.908Z,60.11
2022-12-11T17:26:12.158Z,60.36
2022-12-11T17:28:40.831Z,61.38
2022-12-11T17:31:10.458Z,61.39
2022-12-11T17:33:38.763Z,61.88
2022-12-11T17:36:09.615Z,61.50
2022-12-11T17:38:37.667Z,61.83
2022-12-11T17:41:07.861Z,61.61
2022-12-11T17:43:36.368Z,62.15
2022-12-11T17:46:05.486Z,62.14
2022-12-11T17:48:36.851Z,61.80
2022-12-11T17:51:06.739Z,61.98
2022-12-11T17:53:37.587Z,62.01
2022-12-11T17:56:07.683Z,60.59
2022-12-11T17:58:35.966Z,60.49
2022-12-11T18:01:08.484Z,60.46
2022-12-11T18:03:37.035Z,60.72
2022-12-11T18:06:07.829Z,60.23
2022-12-11T18:08:37.651Z,61.38
2022-12-11T18:11:07.050Z,60.71
2022-12-11T18:13:35.451Z,60.18
2022-12-11T18:16:05.868Z,61.36
2022-12-11T18:18:35.611Z,60.60
2022-12-11T18:21:03.968Z,60.28
2022-12-11T18:23:32.364Z,60.48
2022-12-11T18:26:01.884Z,60.81
2022-12-11T18:28:32.313Z,60.15
2022-12-11T18:31:01.778Z,60.82
2022-12-11T18:33:31.166Z,60.59
2022-12-11T18:35:59.484Z,61.10
2022-12-11T18:38:27.820Z,61.25
2022-12-11T18:40:56.017Z,61.57
2022-12-11T18:43:25.722Z,60.67
2022-12-11T18:45:53.812Z,61.08
2022-12-11T18:48:22.064Z,61.51
2022-12-11T18:50:51.936Z,62.11
2022-12-11T18:53:20.899Z,60.87
2022-12-11T18:55:50.025Z,61.15
2022-12-11T18:58:20.642Z,62.04
2022-12-11T19:00:50.197Z,62.50
2022-12-11T19:03:20.923Z,64.16
2022-12-11T19:05:49.046Z,63.98
2022-12-11T19:08:17.825Z,62.63
2022-12-11T19:10:47.614Z,63.08
2022-12-11T19:13:17.187Z,63.52
2022-12-11T19:15:45.837Z,63.84
2022-12-11T19:18:15.498Z,63.04
2022-12-11T19:20:57.794Z,63.27
2022-12-11T19:23:31.845Z,64.62
2022-12-11T19:25:59.938Z,65.31
2022-12-11T19:28:27.931Z,65.38
2022-12-11T19:30:56.074Z,64.18
2022-12-11T19:33:25.849Z,64.59
2022-12-11T19:36:02.208Z,65.33
2022-12-11T19:38:30.283Z,65.25
2022-12-11T19:40:58.305Z,65.32
2022-12-11T19:43:26.579Z,64.66
2022-12-11T19:45:57.694Z,65.35
2022-12-11T19:48:27.379Z,64.83
2022-12-11T19:50:55.851Z,65.24
2022-12-11T19:53:25.803Z,66.11
2022-12-11T19:55:54.628Z,66.25
2022-12-11T19:58:22.857Z,66.63
2022-12-11T20:00:55.871Z,66.37
2022-12-11T20:03:26.910Z,66.55
2022-12-11T20:06:02.791Z,65.69
2022-12-11T20:08:46.721Z,64.94
2022-12-11T20:11:18.873Z,65.02
2022-12-11T20:13:47.555Z,64.36
2022-12-11T20:16:17.793Z,64.63
2022-12-11T20:18:46.330Z,65.03
2022-12-11T20:21:20.055Z,65.20
2022-12-11T20:23:48.874Z,65.56
2022-12-11T20:26:18.913Z,65.46
2022-12-11T20:28:51.107Z,65.02
2022-12-11T20:31:24.482Z,65.35
2022-12-11T20:33:54.278Z,65.62
2022-12-11T20:36:25.838Z,65.28
2022-12-11T20:38:54.404Z,66.01
2022-12-11T20:41:24.464Z,66.02
2022-12-11T20:43:54.383Z,67.40
2022-12-11T20:46:25.123Z,66.33
2022-12-11T20:48:54.316Z,67.05
2022-12-11T20:51:26.382Z,66.22
2022-12-11T20:53:59.236Z,66.11
2022-12-11T20:56:32.283Z,66.33
2022-12-11T20:59:01.573Z,65.52
2022-12-11T21:01:32.813Z,64.84
2022-12-11T21:04:01.953Z,65.88
2022-12-11T21:06:33.824Z,66.01
2022-12-11T21:09:05.349Z,66.49
2022-12-11T21:11:33.581Z,66.46
2022-12-11T21:14:01.909Z,66.57
2022-12-11T21:16:29.945Z,65.47
2022-12-11T21:18:58.864Z,66.93
2022-12-11T21:21:27.216Z,66.23
2022-12-11T21:23:56.766Z,66.02
2022-12-11T21:26:25.151Z,65.97
2022-12-11T21:28:53.882Z,66.50
2022-12-11T21:31:23.119Z,66.21
2022-12-11T21:33:51.958Z,65.71
2022-12-11T21:36:20.267Z,65.95
2022-12-11T21:38:48.852Z,66.41
2022-12-11T21:41:21.228Z,66.52
2022-12-11T21:45:06.960Z,67.08
2022-12-11T21:46:41.602Z,67.96
2022-12-11T21:49:10.164Z,67.01
2022-12-11T21:51:46.888Z,67.67
2022-12-11T21:54:18.198Z,68.21
2022-12-11T21:56:48.195Z,67.49
2022-12-11T21:59:16.955Z,67.27
2022-12-11T22:01:47.167Z,67.52
2022-12-11T22:04:16.288Z,66.45
2022-12-11T22:06:47.236Z,66.29
2022-12-11T22:09:16.394Z,66.88
2022-12-11T22:11:45.261Z,66.99
2022-12-11T22:14:15.562Z,66.63
2022-12-11T22:16:44.529Z,66.55
2022-12-11T22:19:13.620Z,67.41
2022-12-11T22:21:41.922Z,67.56
2022-12-11T22:24:10.500Z,67.10
2022-12-11T22:26:38.582Z,66.78
2022-12-11T22:29:06.801Z,66.73
2022-12-11T22:31:39.108Z,67.44
2022-12-11T22:34:07.339Z,67.15
2022-12-11T22:36:35.603Z,66.50
2022-12-11T22:39:03.779Z,66.40
2022-12-11T22:41:33.811Z,66.36
2022-12-11T22:44:02.403Z,66.25
2022-12-11T22:46:31.733Z,66.32
2022-12-11T22:49:01.057Z,67.05
2022-12-11T22:51:29.146Z,67.34
2022-12-11T22:53:57.406Z,67.50
2022-12-11T22:56:28.381Z,67.52
2022-12-11T22:58:59.754Z,68.55
2022-12-11T23:01:29.216Z,68.54
2022-12-11T23:03:57.328Z,69.24
2022-12-11T23:06:26.797Z,68.98
2022-12-11T23:08:59.468Z,69.76
2022-12-11T23:11:29.930Z,69.29
2022-12-11T23:13:59.135Z,68.92
2022-12-11T23:16:28.144Z,68.94
2022-12-11T23:18:56.920Z,69.50
2022-12-11T23:21:28.403Z,69.21
2022-12-11T23:23:56.925Z,68.52
2022-12-11T23:26:27.323Z,69.87
2022-12-11T23:28:56.558Z,69.92
2022-12-11T23:31:25.293Z,70.21
2022-12-11T23:33:53.912Z,69.80
2022-12-11T23:36:22.125Z,69.84
2022-12-11T23:38:54.827Z,69.52
2022-12-11T23:41:24.337Z,69.68
2022-12-11T23:43:52.874Z,69.75
2022-12-11T23:46:22.982Z,70.08
2022-12-11T23:48:51.315Z,69.74
2022-12-11T23:51:21.790Z,69.64
2022-12-11T23:53:52.028Z,70.72
2022-12-11T23:56:22.710Z,70.45
2022-12-11T23:58:51.192Z,70.18
